Terminal Aerodrome Forecast
Issued by NWS Spokane, WA

Home | Current Version | Previous Version | Text Only | Print | Product List | Glossary On
Versions: 1 2 3 4 5 6 7 8 9 10 11 12 13 14 15 16 17 18 19 20 21 22 23 24 25 26 27 28 29 30 31 32 33 34 35 36 37 38
000
FTUS46 KOTX 260105 AAA
TAFGEG
TAF AMD
KGEG 260105Z 2601/2624 22018KT P6SM FEW060 SCT090 BKN250
     FM260400 19009KT P6SM SCT060 BKN100
     FM260800 19008KT P6SM -RA BKN020 OVC040
     FM261300 20010KT P6SM VCSH BKN010 OVC025
     FM261700 22013G20KT P6SM -SHRA SCT030 BKN060=

USA.gov is the U.S. government's official web portal to all federal, state and local government web resources and services.